sensor_id;sensor_type;location;lat;lon;timestamp;P1;durP1;ratioP1;P2;durP2;ratioP2
76749;SDS011;66447;35.844;14.468;2023-02-01T00:02:34;7.78;;;2.60;;
76749;SDS011;66447;35.844;14.468;2023-02-01T00:17:36;6.93;;;3.15;;
76749;SDS011;66447;35.844;14.468;2023-02-01T00:32:36;5.93;;;2.10;;
76749;SDS011;66447;35.844;14.468;2023-02-01T00:47:37;5.57;;;2.45;;
76749;SDS011;66447;35.844;14.468;2023-02-01T01:02:38;7.45;;;2.55;;
76749;SDS011;66447;35.844;14.468;2023-02-01T01:17:38;7.65;;;3.08;;
76749;SDS011;66447;35.844;14.468;2023-02-01T01:32:39;7.25;;;3.55;;
76749;SDS011;66447;35.844;14.468;2023-02-01T01:47:41;7.13;;;3.50;;
76749;SDS011;66447;35.844;14.468;2023-02-01T02:02:47;11.15;;;9.38;;
76749;SDS011;66447;35.844;14.468;2023-02-01T02:18:01;6.32;;;4.03;;
76749;SDS011;66447;35.844;14.468;2023-02-01T03:04:22;8.47;;;4.10;;
76749;SDS011;66447;35.844;14.468;2023-02-01T03:19:24;9.63;;;3.87;;
76749;SDS011;66447;35.844;14.468;2023-02-01T03:34:34;9.68;;;3.85;;
76749;SDS011;66447;35.844;14.468;2023-02-01T03:49:37;5.27;;;3.50;;
76749;SDS011;66447;35.844;14.468;2023-02-01T04:04:44;6.32;;;3.50;;
76749;SDS011;66447;35.844;14.468;2023-02-01T04:19:45;6.57;;;3.63;;
76749;SDS011;66447;35.844;14.468;2023-02-01T04:34:45;8.10;;;3.50;;
76749;SDS011;66447;35.844;14.468;2023-02-01T04:49:46;6.88;;;2.67;;
76749;SDS011;66447;35.844;14.468;2023-02-01T05:04:47;6.25;;;2.97;;
76749;SDS011;66447;35.844;14.468;2023-02-01T05:19:47;6.30;;;2.80;;
76749;SDS011;66447;35.844;14.468;2023-02-01T05:34:48;6.22;;;2.88;;
76749;SDS011;66447;35.844;14.468;2023-02-01T05:49:49;11.93;;;2.90;;
76749;SDS011;66447;35.844;14.468;2023-02-01T06:04:50;10.07;;;3.55;;
76749;SDS011;66447;35.844;14.468;2023-02-01T06:19:51;8.90;;;3.00;;
76749;SDS011;66447;35.844;14.468;2023-02-01T06:34:51;14.65;;;3.58;;
76749;SDS011;66447;35.844;14.468;2023-02-01T06:49:52;19.95;;;3.83;;
76749;SDS011;66447;35.844;14.468;2023-02-01T07:04:53;22.52;;;4.63;;
76749;SDS011;66447;35.844;14.468;2023-02-01T07:19:53;14.13;;;4.65;;
76749;SDS011;66447;35.844;14.468;2023-02-01T07:34:54;21.05;;;4.90;;
76749;SDS011;66447;35.844;14.468;2023-02-01T07:49:55;16.70;;;3.92;;
76749;SDS011;66447;35.844;14.468;2023-02-01T08:04:55;19.10;;;5.13;;
76749;SDS011;66447;35.844;14.468;2023-02-01T08:19:56;14.38;;;3.25;;
76749;SDS011;66447;35.844;14.468;2023-02-01T08:34:59;5.97;;;2.42;;
76749;SDS011;66447;35.844;14.468;2023-02-01T08:49:59;13.23;;;3.33;;
76749;SDS011;66447;35.844;14.468;2023-02-01T09:05:00;4.43;;;2.10;;
76749;SDS011;66447;35.844;14.468;2023-02-01T09:35:02;7.78;;;2.45;;
76749;SDS011;66447;35.844;14.468;2023-02-01T09:50:04;3.78;;;2.08;;
76749;SDS011;66447;35.844;14.468;2023-02-01T10:05:17;6.30;;;2.67;;
76749;SDS011;66447;35.844;14.468;2023-02-01T10:35:39;7.05;;;2.72;;
76749;SDS011;66447;35.844;14.468;2023-02-01T10:50:55;3.78;;;1.85;;
76749;SDS011;66447;35.844;14.468;2023-02-01T11:21:24;4.97;;;2.10;;
76749;SDS011;66447;35.844;14.468;2023-02-01T11:36:26;4.03;;;2.20;;
76749;SDS011;66447;35.844;14.468;2023-02-01T12:06:53;5.63;;;2.03;;
76749;SDS011;66447;35.844;14.468;2023-02-01T12:22:14;5.35;;;2.25;;
76749;SDS011;66447;35.844;14.468;2023-02-01T12:52:55;4.63;;;2.10;;
76749;SDS011;66447;35.844;14.468;2023-02-01T13:08:02;5.07;;;1.80;;
76749;SDS011;66447;35.844;14.468;2023-02-01T13:23:11;6.00;;;2.15;;
76749;SDS011;66447;35.844;14.468;2023-02-01T13:38:30;5.22;;;2.13;;
76749;SDS011;66447;35.844;14.468;2023-02-01T13:53:52;3.17;;;1.90;;
76749;SDS011;66447;35.844;14.468;2023-02-01T14:24:28;7.03;;;2.45;;
76749;SDS011;66447;35.844;14.468;2023-02-01T14:55:00;7.80;;;2.60;;
76749;SDS011;66447;35.844;14.468;2023-02-01T15:10:06;6.95;;;2.20;;
76749;SDS011;66447;35.844;14.468;2023-02-01T15:25:28;4.28;;;2.20;;
76749;SDS011;66447;35.844;14.468;2023-02-01T15:40:28;9.30;;;2.40;;
76749;SDS011;66447;35.844;14.468;2023-02-01T15:55:35;15.60;;;3.80;;
76749;SDS011;66447;35.844;14.468;2023-02-01T16:10:39;21.88;;;4.35;;
76749;SDS011;66447;35.844;14.468;2023-02-01T16:25:45;27.35;;;5.20;;
76749;SDS011;66447;35.844;14.468;2023-02-01T16:40:47;31.27;;;6.00;;
76749;SDS011;66447;35.844;14.468;2023-02-01T16:55:48;17.45;;;5.05;;
76749;SDS011;66447;35.844;14.468;2023-02-01T17:10:49;21.87;;;4.47;;
76749;SDS011;66447;35.844;14.468;2023-02-01T17:25:50;28.65;;;4.88;;
76749;SDS011;66447;35.844;14.468;2023-02-01T17:40:51;9.10;;;4.30;;
76749;SDS011;66447;35.844;14.468;2023-02-01T17:55:52;9.15;;;4.20;;
76749;SDS011;66447;35.844;14.468;2023-02-01T18:10:57;7.43;;;3.07;;
76749;SDS011;66447;35.844;14.468;2023-02-01T18:25:59;10.30;;;3.90;;
76749;SDS011;66447;35.844;14.468;2023-02-01T18:41:00;11.27;;;4.32;;
76749;SDS011;66447;35.844;14.468;2023-02-01T18:56:04;5.13;;;2.20;;
76749;SDS011;66447;35.844;14.468;2023-02-01T19:11:05;5.40;;;2.50;;
76749;SDS011;66447;35.844;14.468;2023-02-01T19:26:09;5.47;;;2.40;;
76749;SDS011;66447;35.844;14.468;2023-02-01T19:41:11;3.83;;;2.10;;
76749;SDS011;66447;35.844;14.468;2023-02-01T19:56:11;8.65;;;3.20;;
76749;SDS011;66447;35.844;14.468;2023-02-01T20:11:12;7.60;;;2.60;;
76749;SDS011;66447;35.844;14.468;2023-02-01T20:26:13;6.50;;;2.20;;
76749;SDS011;66447;35.844;14.468;2023-02-01T20:41:14;5.60;;;2.30;;
76749;SDS011;66447;35.844;14.468;2023-02-01T20:56:18;6.38;;;2.25;;
76749;SDS011;66447;35.844;14.468;2023-02-01T21:11:25;4.75;;;2.65;;
76749;SDS011;66447;35.844;14.468;2023-02-01T21:26:26;6.82;;;2.90;;
76749;SDS011;66447;35.844;14.468;2023-02-01T21:41:27;7.33;;;2.17;;
76749;SDS011;66447;35.844;14.468;2023-02-01T21:56:46;8.13;;;2.75;;
76749;SDS011;66447;35.844;14.468;2023-02-01T22:11:48;7.68;;;2.80;;
76749;SDS011;66447;35.844;14.468;2023-02-01T22:41:50;9.10;;;3.75;;
76749;SDS011;66447;35.844;14.468;2023-02-01T22:56:50;8.70;;;3.72;;
76749;SDS011;66447;35.844;14.468;2023-02-01T23:11:51;6.25;;;2.28;;
76749;SDS011;66447;35.844;14.468;2023-02-01T23:26:53;11.87;;;3.43;;
76749;SDS011;66447;35.844;14.468;2023-02-01T23:41:53;6.90;;;2.70;;
76749;SDS011;66447;35.844;14.468;2023-02-01T23:56:54;8.15;;;3.08;;
